Akrotiri, Cyprus
Current Conditions -  °F | °C
As of 10:50 AM on Thursday 23 Oct 2014 (Local Time) from LCRA Reporting Station
Broken Clouds Broken Clouds  
Wind Chill: 68°   Ceiling: 4300
Heat Index: 68°   Visibility: 6mi
Dew Point: 59°   Wind: 8mph
Humidity: 73%   Direction: 340°NNW
Pressure: 29.97"   Gusts: NA
Location:  34.6°N, 32.96°E
Report Text: LCRA 230750Z 34007KT 9999 FEW030CB BKN043 20/15 Q1015 RETS TEMPO5000 TSRA SCT030CB
Loading
Personal Weather Stations






























Interactive Weather Map
Tropical Storm Tracking
New forecast layout! Learn more

10-Day Weather Forecast

Advertisements
Track Severe Weather on mobile